createdAt,value
2022-08-20T00:00:18.331Z,9.10
2022-08-20T00:03:00.152Z,10.30
2022-08-20T00:05:35.961Z,12.90
2022-08-20T00:08:04.383Z,5.90
2022-08-20T00:10:32.580Z,9.90
2022-08-20T00:13:00.079Z,9.10
2022-08-20T00:15:31.571Z,8.10
2022-08-20T00:18:00.011Z,8.00
2022-08-20T00:20:29.462Z,8.00
2022-08-20T00:22:57.540Z,8.50
2022-08-20T00:25:25.972Z,6.50
2022-08-20T00:27:53.102Z,12.50
2022-08-20T00:30:20.884Z,7.40
2022-08-20T00:32:52.535Z,8.40
2022-08-20T00:37:48.796Z,12.60
2022-08-20T00:40:22.942Z,11.30
2022-08-20T00:42:53.899Z,9.90
2022-08-20T00:47:54.659Z,9.70
2022-08-20T00:50:25.467Z,8.90
2022-08-20T00:52:52.570Z,7.20
2022-08-20T00:55:22.562Z,10.50
2022-08-20T00:58:01.019Z,10.40
2022-08-20T01:00:38.195Z,9.10
2022-08-20T01:03:10.077Z,14.00
2022-08-20T01:05:39.111Z,12.80
2022-08-20T01:08:06.675Z,13.40
2022-08-20T01:10:36.423Z,12.80
2022-08-20T01:13:11.028Z,13.10
2022-08-20T01:15:43.247Z,12.40
2022-08-20T01:18:14.140Z,10.80
2022-08-20T01:21:11.738Z,10.20
2022-08-20T01:24:02.200Z,11.10
2022-08-20T01:26:32.585Z,16.20
2022-08-20T01:29:06.537Z,18.00
2022-08-20T01:31:36.514Z,10.80
2022-08-20T01:34:05.918Z,10.20
2022-08-20T01:36:43.002Z,7.70
2022-08-20T01:39:16.331Z,10.40
2022-08-20T01:41:53.696Z,12.70
2022-08-20T01:44:21.883Z,8.80
2022-08-20T01:46:52.931Z,9.10
2022-08-20T01:49:29.043Z,12.20
2022-08-20T01:51:58.467Z,8.90
2022-08-20T01:54:25.952Z,6.60
2022-08-20T01:57:03.249Z,9.80
2022-08-20T01:59:31.276Z,11.20
2022-08-20T02:02:00.425Z,10.70
2022-08-20T02:04:27.967Z,15.20
2022-08-20T02:06:58.265Z,9.90
2022-08-20T02:09:27.416Z,8.60
2022-08-20T02:11:55.486Z,8.40
2022-08-20T02:14:23.691Z,6.30
2022-08-20T02:16:55.271Z,8.90
2022-08-20T02:19:26.932Z,10.70
2022-08-20T02:21:58.765Z,9.30
2022-08-20T02:24:26.453Z,10.80
2022-08-20T02:26:53.810Z,12.70
2022-08-20T02:29:21.014Z,7.50
2022-08-20T02:32:32.803Z,7.20
2022-08-20T02:34:36.139Z,11.20
2022-08-20T02:37:04.651Z,8.20
2022-08-20T02:39:32.484Z,7.60
2022-08-20T02:42:00.232Z,12.40
2022-08-20T02:44:27.743Z,9.10
2022-08-20T02:46:57.404Z,9.20
2022-08-20T02:49:25.061Z,9.00
2022-08-20T02:51:52.219Z,11.00
2022-08-20T02:54:19.533Z,7.80
2022-08-20T02:56:47.561Z,6.50
2022-08-20T02:59:19.770Z,7.70
2022-08-20T03:02:00.417Z,7.90
2022-08-20T03:06:58.819Z,7.50
2022-08-20T03:09:26.438Z,6.60
2022-08-20T03:11:55.487Z,5.40
2022-08-20T03:14:23.888Z,6.60
2022-08-20T03:16:51.269Z,10.40
2022-08-20T03:19:18.506Z,7.50
2022-08-20T03:21:45.881Z,4.90
2022-08-20T03:24:13.328Z,12.40
2022-08-20T03:26:41.006Z,7.10
2022-08-20T03:29:08.448Z,6.40
2022-08-20T03:31:36.192Z,12.80
2022-08-20T03:34:03.559Z,12.80
2022-08-20T03:36:31.108Z,13.20
2022-08-20T03:38:59.489Z,10.10
2022-08-20T03:41:26.976Z,13.40
2022-08-20T03:43:55.089Z,15.00
2022-08-20T03:46:23.807Z,10.50
2022-08-20T03:49:00.490Z,12.30
2022-08-20T03:51:29.312Z,11.80
2022-08-20T03:53:56.743Z,12.50
2022-08-20T03:56:26.888Z,11.40
2022-08-20T03:58:54.402Z,14.20
2022-08-20T04:01:45.284Z,11.10
2022-08-20T04:04:12.458Z,12.70
2022-08-20T04:06:41.243Z,11.40
2022-08-20T04:09:11.598Z,13.30
2022-08-20T04:11:44.407Z,10.80
2022-08-20T04:14:14.953Z,10.00
2022-08-20T04:16:46.112Z,12.10
2022-08-20T04:19:19.005Z,15.70
2022-08-20T04:21:48.538Z,12.70
2022-08-20T04:24:24.501Z,12.10
2022-08-20T04:27:02.854Z,14.40
2022-08-20T04:29:32.099Z,16.90
2022-08-20T04:32:01.661Z,10.70
2022-08-20T04:34:34.346Z,9.50
2022-08-20T04:37:01.967Z,13.10
2022-08-20T04:39:29.325Z,19.70
2022-08-20T04:41:56.764Z,19.60
2022-08-20T04:44:27.697Z,14.90
2022-08-20T04:46:55.132Z,8.80
2022-08-20T04:49:25.167Z,16.10
2022-08-20T04:51:54.672Z,12.00
2022-08-20T04:54:24.468Z,10.10
2022-08-20T04:56:51.844Z,15.70
2022-08-20T04:59:19.014Z,18.80
2022-08-20T05:01:46.208Z,11.50
2022-08-20T05:04:14.107Z,22.30
2022-08-20T05:06:41.807Z,17.50
2022-08-20T05:09:09.535Z,10.40
2022-08-20T05:11:37.140Z,10.40
2022-08-20T05:14:09.000Z,17.80
2022-08-20T05:16:38.255Z,14.30
2022-08-20T05:19:08.776Z,12.50
2022-08-20T05:21:36.588Z,13.00
2022-08-20T05:24:04.586Z,13.90
2022-08-20T05:26:33.537Z,11.80
2022-08-20T05:29:00.872Z,23.40
2022-08-20T05:31:31.360Z,14.10
2022-08-20T05:34:10.315Z,15.10
2022-08-20T05:36:49.649Z,15.70
2022-08-20T05:39:18.361Z,12.70
2022-08-20T05:41:45.760Z,15.30
2022-08-20T05:45:36.765Z,11.20
2022-08-20T05:48:05.964Z,15.00
2022-08-20T05:50:33.540Z,14.30
2022-08-20T05:53:02.701Z,14.70
2022-08-20T05:55:30.873Z,13.50
2022-08-20T05:57:59.918Z,13.70
2022-08-20T06:00:27.768Z,15.90
2022-08-20T06:03:14.442Z,14.30
2022-08-20T06:05:42.676Z,19.50
2022-08-20T06:08:10.478Z,13.40
2022-08-20T06:10:38.695Z,13.80
2022-08-20T06:13:10.458Z,12.50
2022-08-20T06:15:41.286Z,20.70
2022-08-20T06:18:27.478Z,12.90
2022-08-20T06:20:55.786Z,13.00
2022-08-20T06:23:25.352Z,9.90
2022-08-20T06:25:53.042Z,16.00
2022-08-20T06:28:20.587Z,20.60
2022-08-20T06:30:47.668Z,14.30
2022-08-20T06:33:17.498Z,12.00
2022-08-20T06:35:44.810Z,22.50
2022-08-20T06:38:13.038Z,22.20
2022-08-20T06:40:40.393Z,16.20
2022-08-20T06:43:09.194Z,17.90
2022-08-20T06:45:37.894Z,14.90
2022-08-20T06:48:10.730Z,12.90
2022-08-20T06:50:47.553Z,12.80
2022-08-20T06:53:17.741Z,13.30
2022-08-20T06:55:48.382Z,14.20
2022-08-20T06:58:37.663Z,17.80
2022-08-20T07:01:09.551Z,10.00
2022-08-20T07:03:55.125Z,12.00
2022-08-20T07:06:27.632Z,13.70
2022-08-20T07:08:56.094Z,12.70
2022-08-20T07:11:28.167Z,12.60
2022-08-20T07:13:57.230Z,17.60
2022-08-20T07:16:24.890Z,19.20
2022-08-20T07:18:52.567Z,11.90
2022-08-20T07:21:20.163Z,13.50
2022-08-20T07:23:48.997Z,11.30
2022-08-20T07:26:16.835Z,13.10
2022-08-20T07:28:43.905Z,19.30
2022-08-20T07:31:31.446Z,13.70
2022-08-20T07:34:00.616Z,11.10
2022-08-20T07:36:28.312Z,9.50
2022-08-20T07:38:58.015Z,8.90
2022-08-20T07:41:25.593Z,32.30
2022-08-20T07:43:52.803Z,18.40
2022-08-20T07:46:21.664Z,15.10
2022-08-20T07:48:50.596Z,13.50
2022-08-20T07:51:19.303Z,16.20
2022-08-20T07:53:47.275Z,14.20
2022-08-20T07:56:17.254Z,11.80
2022-08-20T08:01:25.731Z,14.60
2022-08-20T08:04:04.635Z,15.30
2022-08-20T08:06:31.908Z,18.00
2022-08-20T08:09:07.141Z,12.70
2022-08-20T08:11:38.331Z,16.40
2022-08-20T08:14:07.058Z,18.80
2022-08-20T08:16:35.338Z,17.90
2022-08-20T08:19:02.580Z,19.60
2022-08-20T08:21:30.814Z,14.30
2022-08-20T08:23:58.396Z,10.60
2022-08-20T08:26:26.428Z,9.60
2022-08-20T08:28:53.956Z,35.00
2022-08-20T08:31:21.463Z,12.40
2022-08-20T08:33:48.871Z,13.90
2022-08-20T08:36:16.374Z,15.10
2022-08-20T08:38:44.899Z,17.50
2022-08-20T08:41:37.452Z,11.60
2022-08-20T08:44:13.148Z,12.20
2022-08-20T08:46:44.152Z,13.70
2022-08-20T08:49:14.456Z,19.50
2022-08-20T08:51:50.647Z,13.20
2022-08-20T08:54:23.064Z,11.80
2022-08-20T08:56:50.768Z,17.50
2022-08-20T08:59:18.650Z,20.70
2022-08-20T09:01:57.178Z,13.10
2022-08-20T09:04:32.353Z,14.40
2022-08-20T09:06:59.715Z,12.60
2022-08-20T09:09:30.389Z,15.60
2022-08-20T09:12:03.450Z,13.70
2022-08-20T09:14:30.911Z,18.80
2022-08-20T09:16:58.092Z,11.40
2022-08-20T09:19:25.303Z,16.50
2022-08-20T09:21:52.697Z,14.60
2022-08-20T09:24:20.087Z,19.40
2022-08-20T09:26:47.289Z,11.90
2022-08-20T09:29:14.544Z,15.10
2022-08-20T09:31:44.593Z,12.00
2022-08-20T09:34:16.381Z,13.60
2022-08-20T09:36:43.866Z,15.30
2022-08-20T09:39:12.660Z,25.30
2022-08-20T09:41:41.520Z,13.00
2022-08-20T09:44:11.339Z,12.80
2022-08-20T09:46:38.743Z,15.50
2022-08-20T09:49:06.070Z,12.10
2022-08-20T09:54:06.309Z,9.40
2022-08-20T09:56:33.548Z,12.20
2022-08-20T09:59:08.557Z,16.80
2022-08-20T10:01:35.875Z,13.30
2022-08-20T10:04:03.715Z,11.70
2022-08-20T10:06:33.470Z,13.60
2022-08-20T10:09:04.641Z,12.90
2022-08-20T10:11:31.996Z,19.60
2022-08-20T10:13:59.329Z,11.00
2022-08-20T10:16:26.747Z,10.30
2022-08-20T10:18:54.565Z,14.60
2022-08-20T10:21:22.123Z,11.80
2022-08-20T10:23:50.296Z,11.60
2022-08-20T10:26:17.562Z,16.60
2022-08-20T10:28:45.344Z,13.50
2022-08-20T10:31:13.111Z,10.10
2022-08-20T10:33:41.888Z,12.40
2022-08-20T10:36:10.467Z,13.60
2022-08-20T10:38:37.615Z,14.90
2022-08-20T10:41:05.064Z,11.80
2022-08-20T10:43:32.896Z,11.60
2022-08-20T10:46:00.622Z,14.60
2022-08-20T10:48:29.252Z,11.50
2022-08-20T10:50:59.987Z,10.40
2022-08-20T10:53:27.380Z,12.30
2022-08-20T10:55:55.234Z,14.70
2022-08-20T10:58:24.043Z,22.40
2022-08-20T11:00:51.805Z,12.20
2022-08-20T11:03:19.501Z,11.50
2022-08-20T11:05:47.234Z,14.20
2022-08-20T11:08:14.447Z,12.40
2022-08-20T11:10:41.886Z,11.80
2022-08-20T11:13:09.860Z,10.40
2022-08-20T11:15:38.560Z,8.20
2022-08-20T11:18:07.093Z,12.10
2022-08-20T11:20:34.843Z,13.90
2022-08-20T11:23:02.839Z,14.80
2022-08-20T11:25:30.051Z,11.90
2022-08-20T11:27:57.893Z,13.90
2022-08-20T11:30:30.224Z,9.90
2022-08-20T11:32:58.469Z,12.50
2022-08-20T11:35:49.228Z,13.80
2022-08-20T11:38:13.299Z,10.90
2022-08-20T11:40:40.760Z,12.50
2022-08-20T11:43:14.665Z,10.60
2022-08-20T11:45:47.175Z,11.60
2022-08-20T11:48:14.365Z,9.80
2022-08-20T11:50:42.229Z,13.50
2022-08-20T11:53:09.717Z,13.40
2022-08-20T11:55:37.210Z,13.10
2022-08-20T11:58:06.277Z,12.50
2022-08-20T12:00:34.291Z,13.30
2022-08-20T12:03:05.436Z,8.70
2022-08-20T12:05:35.331Z,14.80
2022-08-20T12:08:05.131Z,13.80
2022-08-20T12:10:36.687Z,8.30
2022-08-20T12:13:04.994Z,12.50
2022-08-20T12:15:35.171Z,13.90
2022-08-20T12:18:06.648Z,11.80
2022-08-20T12:20:34.104Z,20.40
2022-08-20T12:23:01.172Z,13.60
2022-08-20T12:25:28.441Z,18.90
2022-08-20T12:27:55.818Z,10.10
2022-08-20T12:30:24.241Z,17.40
2022-08-20T12:32:51.731Z,10.50
2022-08-20T12:35:20.101Z,13.10
2022-08-20T12:37:47.642Z,15.70
2022-08-20T12:40:30.788Z,11.40
2022-08-20T12:43:02.777Z,11.20
2022-08-20T12:48:06.721Z,13.70
2022-08-20T12:50:37.948Z,17.30
2022-08-20T12:53:05.238Z,10.00
2022-08-20T12:55:32.857Z,8.50
2022-08-20T12:58:01.565Z,13.00
2022-08-20T13:00:46.543Z,12.60
2022-08-20T13:03:21.717Z,15.10
2022-08-20T13:05:49.682Z,11.30
2022-08-20T13:08:19.464Z,13.60
2022-08-20T13:10:53.224Z,10.40
2022-08-20T13:13:21.188Z,10.40
2022-08-20T13:15:50.229Z,16.10
2022-08-20T13:18:17.468Z,9.90
2022-08-20T13:20:44.951Z,10.10
2022-08-20T13:23:12.091Z,13.20
2022-08-20T13:25:41.181Z,10.60
2022-08-20T13:28:08.356Z,11.30
2022-08-20T13:30:38.861Z,12.90
2022-08-20T13:33:08.923Z,14.40
2022-08-20T13:35:45.701Z,15.90
2022-08-20T13:38:13.539Z,12.00
2022-08-20T13:40:41.061Z,20.40
2022-08-20T13:43:11.807Z,17.40
2022-08-20T13:45:42.220Z,22.50
2022-08-20T13:48:22.099Z,9.30
2022-08-20T13:50:49.523Z,14.50
2022-08-20T13:53:17.694Z,11.40
2022-08-20T13:55:45.747Z,8.90
2022-08-20T13:58:13.419Z,12.30
2022-08-20T14:00:41.292Z,12.60
2022-08-20T14:03:08.768Z,12.10
2022-08-20T14:05:36.954Z,8.90
2022-08-20T14:08:22.024Z,10.60
2022-08-20T14:10:51.499Z,13.90
2022-08-20T14:13:24.320Z,9.90
2022-08-20T14:15:52.485Z,11.00
2022-08-20T14:18:22.945Z,11.20
2022-08-20T14:20:50.759Z,12.40
2022-08-20T14:23:24.143Z,12.50
2022-08-20T14:25:56.830Z,11.50
2022-08-20T14:28:24.928Z,11.90
2022-08-20T14:31:00.671Z,10.70
2022-08-20T14:33:27.987Z,11.50
2022-08-20T14:35:55.912Z,10.60
2022-08-20T14:38:26.624Z,13.10
2022-08-20T14:40:54.358Z,12.20
2022-08-20T14:43:22.206Z,12.80
2022-08-20T14:45:52.734Z,14.20
2022-08-20T14:48:29.749Z,24.80
2022-08-20T14:50:57.169Z,12.80
2022-08-20T14:53:27.850Z,10.10
2022-08-20T14:55:55.095Z,16.20
2022-08-20T14:58:24.648Z,11.50
2022-08-20T15:00:53.740Z,10.60
2022-08-20T15:03:24.043Z,14.80
2022-08-20T15:06:10.895Z,12.50
2022-08-20T15:08:55.271Z,12.00
2022-08-20T15:11:22.699Z,16.60
2022-08-20T15:13:56.276Z,11.30
2022-08-20T15:16:23.752Z,10.40
2022-08-20T15:18:56.546Z,14.10
2022-08-20T15:21:27.429Z,11.20
2022-08-20T15:23:55.203Z,13.30
2022-08-20T15:26:22.826Z,23.30
2022-08-20T15:28:50.175Z,13.50
2022-08-20T15:31:17.658Z,13.20
2022-08-20T15:33:45.110Z,18.20
2022-08-20T15:36:12.249Z,10.10
2022-08-20T15:38:39.299Z,12.20
2022-08-20T15:41:06.764Z,12.40
2022-08-20T15:43:34.132Z,13.20
2022-08-20T15:46:01.675Z,21.10
2022-08-20T15:48:34.585Z,9.00
2022-08-20T15:51:08.039Z,10.00
2022-08-20T15:53:55.940Z,13.30
2022-08-20T15:56:23.489Z,15.40
2022-08-20T15:58:58.984Z,12.70
2022-08-20T16:01:32.751Z,13.10
2022-08-20T16:04:19.183Z,11.70
2022-08-20T16:06:46.757Z,13.50
2022-08-20T16:09:32.627Z,10.40
2022-08-20T16:12:12.496Z,12.70
2022-08-20T16:14:41.611Z,17.90
2022-08-20T16:17:09.023Z,16.90
2022-08-20T16:20:00.046Z,16.40
2022-08-20T16:22:28.534Z,15.10
2022-08-20T16:24:56.031Z,25.40
2022-08-20T16:27:42.110Z,12.50
2022-08-20T16:30:20.766Z,23.60
2022-08-20T16:32:57.168Z,15.60
2022-08-20T16:35:29.647Z,21.20
2022-08-20T16:38:00.588Z,12.90
2022-08-20T16:40:35.232Z,13.70
2022-08-20T16:43:06.071Z,13.70
2022-08-20T16:45:45.632Z,12.00
2022-08-20T16:48:18.801Z,18.00
2022-08-20T16:50:59.276Z,12.40
2022-08-20T16:53:27.140Z,11.90
2022-08-20T16:55:57.624Z,22.10
2022-08-20T16:58:25.281Z,21.80
2022-08-20T17:01:25.991Z,28.60
2022-08-20T17:06:32.704Z,22.80
2022-08-20T17:09:09.969Z,15.50
2022-08-20T17:11:38.165Z,15.90
2022-08-20T17:14:17.380Z,18.90
2022-08-20T17:16:46.758Z,18.70
2022-08-20T17:19:34.438Z,18.90
2022-08-20T17:22:12.032Z,19.90
2022-08-20T17:24:40.343Z,18.30
2022-08-20T17:27:16.256Z,27.20
2022-08-20T17:30:04.443Z,16.70
2022-08-20T17:32:31.965Z,19.10
2022-08-20T17:35:00.769Z,23.70
2022-08-20T17:37:41.928Z,22.90
2022-08-20T17:40:15.403Z,31.50
2022-08-20T17:42:52.284Z,37.00
2022-08-20T17:45:30.555Z,42.90
2022-08-20T17:47:59.797Z,57.20
2022-08-20T17:50:35.787Z,67.30
2022-08-20T17:53:05.375Z,59.20
2022-08-20T17:55:33.640Z,52.20
2022-08-20T17:58:03.002Z,56.40
2022-08-20T18:00:31.226Z,56.90
2022-08-20T18:03:00.756Z,50.00
2022-08-20T18:05:29.965Z,52.40
2022-08-20T18:08:04.020Z,43.50
2022-08-20T18:10:32.432Z,41.40
2022-08-20T18:13:19.344Z,46.80
2022-08-20T18:15:53.077Z,43.80
2022-08-20T18:18:42.645Z,46.40
2022-08-20T18:21:48.816Z,36.60
2022-08-20T18:24:19.223Z,44.90
2022-08-20T18:26:49.758Z,22.40
2022-08-20T18:31:56.256Z,28.00
2022-08-20T18:34:29.799Z,22.90
2022-08-20T18:37:00.515Z,16.30
2022-08-20T18:39:41.441Z,17.10
2022-08-20T18:42:10.993Z,17.80
2022-08-20T18:44:43.998Z,19.70
2022-08-20T18:47:29.929Z,20.30
2022-08-20T18:50:16.587Z,14.80
2022-08-20T18:52:46.958Z,14.30
2022-08-20T18:55:44.491Z,20.00
2022-08-20T18:58:49.570Z,17.00
2022-08-20T19:01:16.784Z,13.80
2022-08-20T19:03:46.732Z,12.20
2022-08-20T19:06:40.480Z,13.50
2022-08-20T19:09:44.950Z,11.30
2022-08-20T19:12:54.779Z,15.60
2022-08-20T19:15:22.319Z,17.20
2022-08-20T19:17:59.670Z,13.40
2022-08-20T19:20:29.552Z,12.80
2022-08-20T19:23:15.141Z,11.80
2022-08-20T19:25:57.381Z,14.80
2022-08-20T19:28:31.236Z,14.50
2022-08-20T19:31:12.427Z,14.50
2022-08-20T19:33:44.263Z,21.10
2022-08-20T19:36:14.707Z,13.90
2022-08-20T19:38:52.418Z,12.40
2022-08-20T19:41:32.871Z,12.90
2022-08-20T19:44:00.677Z,15.10
2022-08-20T19:46:28.143Z,14.80
2022-08-20T19:49:36.431Z,16.60
2022-08-20T19:52:19.175Z,10.30
2022-08-20T19:54:52.324Z,16.60
2022-08-20T19:57:19.953Z,14.70
2022-08-20T19:59:58.623Z,17.30
2022-08-20T20:02:28.854Z,18.10
2022-08-20T20:04:58.034Z,15.40
2022-08-20T20:07:28.590Z,19.60
2022-08-20T20:09:56.799Z,16.90
2022-08-20T20:12:24.750Z,14.00
2022-08-20T20:14:53.048Z,23.80
2022-08-20T20:17:23.312Z,26.50
2022-08-20T20:19:50.440Z,13.10
2022-08-20T20:22:28.336Z,18.10
2022-08-20T20:25:07.422Z,17.40
2022-08-20T20:27:34.707Z,16.10
2022-08-20T20:30:04.924Z,21.70
2022-08-20T20:32:34.123Z,13.70
2022-08-20T20:35:03.881Z,50.30
2022-08-20T20:37:49.115Z,20.80
2022-08-20T20:40:23.808Z,18.10
2022-08-20T20:43:05.152Z,17.90
2022-08-20T20:45:35.195Z,15.80
2022-08-20T20:48:25.286Z,19.00
2022-08-20T20:50:52.609Z,21.40
2022-08-20T20:53:50.853Z,17.30
2022-08-20T20:56:41.519Z,19.00
2022-08-20T20:59:10.308Z,25.60
2022-08-20T21:01:49.254Z,18.50
2022-08-20T21:04:19.980Z,15.70
2022-08-20T21:06:54.791Z,18.00
2022-08-20T21:09:22.769Z,16.80
2022-08-20T21:11:50.968Z,17.70
2022-08-20T21:14:18.428Z,16.50
2022-08-20T21:16:46.307Z,17.40
2022-08-20T21:19:14.182Z,16.70
2022-08-20T21:21:41.569Z,11.50
2022-08-20T21:24:08.996Z,12.20
2022-08-20T21:26:37.051Z,12.60
2022-08-20T21:29:05.892Z,14.50
2022-08-20T21:31:36.155Z,11.70
2022-08-20T21:34:03.715Z,11.30
2022-08-20T21:36:31.986Z,10.30
2022-08-20T21:38:59.641Z,9.50
2022-08-20T21:41:30.005Z,9.40
2022-08-20T21:43:59.175Z,5.80
2022-08-20T21:46:29.730Z,6.80
2022-08-20T21:51:24.383Z,7.70
2022-08-20T21:53:52.053Z,7.40
2022-08-20T21:56:19.485Z,6.40
2022-08-20T21:58:47.288Z,7.20
2022-08-20T22:01:14.864Z,9.30
2022-08-20T22:03:42.172Z,10.10
2022-08-20T22:06:10.988Z,9.00
2022-08-20T22:08:38.532Z,8.20
2022-08-20T22:11:06.253Z,6.60
2022-08-20T22:13:35.148Z,6.30
2022-08-20T22:16:04.881Z,11.80
2022-08-20T22:18:32.845Z,9.00
2022-08-20T22:21:00.477Z,6.60
2022-08-20T22:23:28.379Z,5.70
2022-08-20T22:25:55.776Z,8.20
2022-08-20T22:28:23.308Z,7.30
2022-08-20T22:30:50.548Z,6.80
2022-08-20T22:33:22.740Z,6.90
2022-08-20T22:35:51.956Z,8.80
2022-08-20T22:38:19.184Z,13.60
2022-08-20T22:40:46.594Z,10.60
2022-08-20T22:43:15.275Z,13.30
2022-08-20T22:45:44.650Z,14.10
2022-08-20T22:48:12.271Z,12.10
2022-08-20T22:50:39.527Z,8.20
2022-08-20T22:53:07.663Z,7.90
2022-08-20T22:55:35.566Z,8.90
2022-08-20T22:58:03.777Z,6.00
2022-08-20T23:00:33.864Z,8.50
2022-08-20T23:03:01.588Z,7.80
2022-08-20T23:05:31.639Z,6.30
2022-08-20T23:07:59.609Z,7.10
2022-08-20T23:10:28.539Z,9.20
2022-08-20T23:12:57.460Z,6.70
2022-08-20T23:15:26.643Z,7.80
2022-08-20T23:17:56.742Z,8.50
2022-08-20T23:20:24.061Z,8.40
2022-08-20T23:22:51.420Z,6.80
2022-08-20T23:25:22.387Z,8.90
2022-08-20T23:27:50.815Z,9.80
2022-08-20T23:30:19.113Z,11.30
2022-08-20T23:32:46.406Z,7.10
2022-08-20T23:35:14.212Z,9.80
2022-08-20T23:37:53.596Z,8.90
2022-08-20T23:40:28.048Z,7.60
2022-08-20T23:42:55.961Z,6.70
2022-08-20T23:45:23.744Z,9.90
2022-08-20T23:47:51.326Z,7.80
2022-08-20T23:50:21.283Z,7.30
2022-08-20T23:52:52.706Z,5.80
2022-08-20T23:55:20.738Z,5.80
2022-08-20T23:57:48.036Z,7.70
